Salem, OR (97301)

11:34 AM PDT on September 29, 2016 (GMT -0700)
Center & Cordon NE | | Change Station

Elev 210 ft 44.94 °N, 122.96 °W | Updated 3 seconds ago

Clear
Clear
64.3 °F
Feels Like 64.3 °F
N
2.1
Wind Variable Wind from NNW
Gusts 3.5 mph

Today
High -- | Low -- °F
--% Chance of Precip.
Yesterday
High -- | Low -- °F
Precip. -- in
Pressure 30.07 in
Visibility 10.0 miles
Clouds Clear
Dew Point 47 °F
Humidity 54%
Rainfall 0.00 in
Snow Depth Not available.
7:08 AM 6:54 PM
Waning Crescent, 1% visible
METAR KSLE 291756Z VRB03KT 10SM R31/4000VP6000FT CLR 17/08 A3007 RMK AO2 SLP182 T01720078 10172 20072 51008
Pressure 30.07 in
Visibility 10.0 miles
Clouds Clear
Dew Point 47 °F
Humidity 54%
Rainfall 0.00 in
Snow Depth Not available.
7:08 AM 6:54 PM
Waning Crescent, 1% visible
METAR KSLE 291756Z VRB03KT 10SM R31/4000VP6000FT CLR 17/08 A3007 RMK AO2 SLP182 T01720078 10172 20072 51008

10-Day Weather Forecast

Almanac

Astronomy

Sep. 29, 2016 Rise Set
Actual Time
Civil Twilight
Nautical Twilight
Astronomical Twilight
Moon
Length of Visible Light
Length of Day
Tomorrow will be .
, % of the Moon is Illuminated

Today's Extremes

State Highs State Lows

Community

WunderPhotos

Upload Photos

1,942,545 photos uploaded!

WunderBlog® & News

Nearby

Air Quality

  Air Quality AQ Index Pollutant
Not available.

Snow Depth

Station Depth Elevation

Earthquake Activity

City Distance Mag. Time & Date
Minimum magnitude displayed is 2.5.

Coastal Water Temperatures

Place Temperature

Stations

Nearby Weather Stations

Station Location Temp. Windchill Dew Point Humidity Wind Precip. Elev Updated Type
                   

Watches & Warnings

There are currently no watches in effect.